Time;durP1;ratioP1;P1;durP2;ratioP2;P2;SDS_P1;SDS_P2;PMS_P1;PMS_P2;Temp;Humidity;BMP_temperature;BMP_pressure;BME280_temperature;BME280_humidity;BME280_pressure;Samples;Min_cycle;Max_cycle;Signal;HPM_P1;HPM_P2
2021/10/26 00:01:39;;;;;;;;;10.00;10.00;;;;;14.06;71.52;101365.91;5074551;28;45974;-79
2021/10/26 00:04:07;;;;;;;;;11.25;10.25;;;;;13.95;71.72;101348.25;5074717;28;45580;-79
2021/10/26 00:06:34;;;;;;;;;8.75;7.50;;;;;13.93;71.48;101339.59;5074552;28;45712;-78
2021/10/26 00:08:59;;;;;;;;;9.50;8.75;;;;;14.07;71.74;101367.59;5074443;28;46716;-79
2021/10/26 00:11:24;;;;;;;;;13.50;9.75;;;;;14.03;71.67;101358.22;5074404;28;46572;-80
2021/10/26 00:13:50;;;;;;;;;11.00;9.00;;;;;14.02;71.98;101364.44;5074110;28;45522;-80
2021/10/26 00:16:15;;;;;;;;;8.50;8.00;;;;;13.96;72.30;101354.34;5074496;28;45650;-79
2021/10/26 00:18:41;;;;;;;;;7.75;6.00;;;;;13.91;72.17;101352.06;5074044;28;46812;-80
2021/10/26 00:21:06;;;;;;;;;7.00;7.00;;;;;13.96;72.18;101362.25;5073989;28;46313;-79
2021/10/26 00:26:53;;;;;;;;;5.00;4.75;;;;;13.84;72.07;101353.44;5074249;28;45691;-80
2021/10/26 00:29:19;;;;;;;;;10.00;8.25;;;;;13.78;71.99;101357.38;5074016;28;46278;-80
2021/10/26 00:31:44;;;;;;;;;7.25;7.00;;;;;13.87;71.78;101367.22;5073756;28;45487;-81
2021/10/26 00:34:10;;;;;;;;;6.75;6.00;;;;;13.73;72.17;101351.59;5074074;28;45739;-79
2021/10/26 00:36:35;;;;;;;;;8.75;7.25;;;;;13.83;71.80;101375.47;5074344;28;45497;-80
2021/10/26 00:39:00;;;;;;;;;10.25;6.75;;;;;13.76;72.21;101366.34;5073670;28;47336;-79
2021/10/26 00:41:26;;;;;;;;;7.00;7.00;;;;;13.74;72.11;101368.25;5074059;28;45675;-79
2021/10/26 00:43:52;;;;;;;;;10.50;9.00;;;;;13.70;71.92;101370.28;5055457;28;45694;-80
2021/10/26 00:46:34;;;;;;;;;6.25;5.75;;;;;13.74;72.02;101376.16;5074083;28;45673;-80
2021/10/26 00:49:01;;;;;;;;;9.75;8.25;;;;;13.72;71.79;101376.25;5073757;28;46329;-80
2021/10/26 00:51:29;;;;;;;;;9.00;7.00;;;;;13.56;72.06;101369.56;5073471;28;46087;-79
2021/10/26 00:57:19;;;;;;;;;8.50;7.25;;;;;13.55;72.41;101368.72;5072968;28;45683;-80
2021/10/26 00:59:45;;;;;;;;;7.50;6.25;;;;;13.61;72.38;101391.13;5071817;28;45696;-79
2021/10/26 01:02:10;;;;;;;;;10.50;10.00;;;;;13.49;72.22;101371.81;5073566;28;46031;-79
2021/10/26 01:04:36;;;;;;;;;11.00;9.00;;;;;13.50;72.27;101372.63;5073706;28;45645;-79
2021/10/26 01:07:01;;;;;;;;;10.00;9.50;;;;;13.43;71.98;101362.53;5076103;28;45811;-79
2021/10/26 01:09:27;;;;;;;;;11.00;9.25;;;;;13.58;72.09;101383.47;5077127;28;46561;-80
2021/10/26 01:11:53;;;;;;;;;9.75;8.75;;;;;13.56;71.86;101391.47;5076983;28;45632;-79
2021/10/26 01:14:19;;;;;;;;;10.00;9.00;;;;;13.58;71.64;101386.94;5077204;28;45634;-79
2021/10/26 01:16:45;;;;;;;;;8.75;8.25;;;;;13.56;71.95;101382.72;5075825;28;45522;-79
2021/10/26 01:19:10;;;;;;;;;9.50;7.00;;;;;13.55;72.32;101383.69;5077152;28;45801;-80
2021/10/26 01:21:36;;;;;;;;;8.25;6.75;;;;;13.61;71.87;101394.59;5076905;28;45728;-80
2021/10/26 01:27:23;;;;;;;;;7.75;5.00;;;;;13.58;71.91;101389.56;5076898;28;45655;-79
2021/10/26 01:29:49;;;;;;;;;8.25;7.00;;;;;13.60;71.98;101392.09;5076994;28;46697;-81
2021/10/26 01:32:16;;;;;;;;;5.00;5.00;;;;;13.55;71.98;101376.59;5077072;28;46029;-81
2021/10/26 01:34:42;;;;;;;;;5.00;5.00;;;;;13.59;71.98;101393.03;5076842;28;45651;-81
2021/10/26 01:37:10;;;;;;;;;5.00;4.00;;;;;13.54;71.91;101388.13;5077446;28;45775;-80
2021/10/26 01:39:37;;;;;;;;;6.25;5.00;;;;;13.47;71.46;101367.59;5081507;28;46202;-79
2021/10/26 01:42:03;;;;;;;;;6.50;5.00;;;;;13.53;71.94;101382.94;5079545;28;46317;-79
2021/10/26 01:44:31;;;;;;;;;5.00;5.00;;;;;13.46;71.64;101385.16;5076754;28;45846;-80
2021/10/26 01:46:56;;;;;;;;;4.00;3.50;;;;;13.47;71.96;101386.00;5077050;28;45582;-79
2021/10/26 01:49:22;;;;;;;;;2.25;2.00;;;;;13.50;71.82;101389.25;5076374;28;46585;-79
2021/10/26 01:51:49;;;;;;;;;4.75;3.75;;;;;13.47;72.15;101396.53;5081243;28;46262;-80
2021/10/26 01:57:37;;;;;;;;;4.50;4.00;;;;;13.36;71.59;101394.66;5080739;27;45644;-80
2021/10/26 02:00:11;;;;;;;;;5.50;5.00;;;;;13.35;71.75;101392.97;5083941;28;46895;-78
2021/10/26 02:02:37;;;;;;;;;6.00;4.50;;;;;13.24;71.76;101380.56;5082090;28;46629;-78
2021/10/26 02:05:04;;;;;;;;;6.00;4.50;;;;;13.31;71.46;101395.00;5076832;28;45780;-79
2021/10/26 02:07:29;;;;;;;;;6.75;6.00;;;;;13.33;71.86;101390.44;5076502;28;45703;-79
2021/10/26 02:09:55;;;;;;;;;6.50;4.50;;;;;13.22;71.68;101379.00;5076413;28;45588;-79
2021/10/26 02:12:21;;;;;;;;;5.00;4.75;;;;;13.31;71.82;101399.41;5076361;28;45770;-80
2021/10/26 02:14:47;;;;;;;;;5.00;4.25;;;;;13.29;71.51;101388.97;5075798;28;45771;-79
2021/10/26 02:17:12;;;;;;;;;4.25;4.25;;;;;13.24;71.84;101379.72;5075798;27;45490;-80
2021/10/26 02:19:39;;;;;;;;;5.75;4.75;;;;;13.27;71.70;101383.00;5075590;28;46261;-80
2021/10/26 02:22:05;;;;;;;;;4.00;4.00;;;;;13.29;71.60;101394.25;5075795;28;46068;-79
2021/10/26 02:27:52;;;;;;;;;3.25;3.25;;;;;13.12;72.09;101370.88;5076000;28;45717;-81
2021/10/26 02:30:18;;;;;;;;;3.50;3.00;;;;;13.29;71.69;101396.03;5076134;28;46446;-80
2021/10/26 02:32:43;;;;;;;;;4.00;4.00;;;;;13.18;71.67;101372.25;5075823;28;46192;-79
2021/10/26 02:35:09;;;;;;;;;2.50;2.50;;;;;13.20;71.70;101371.22;5075826;28;46095;-80
2021/10/26 02:37:34;;;;;;;;;4.00;3.00;;;;;13.23;71.67;101381.50;5074533;28;45672;-78
2021/10/26 02:40:00;;;;;;;;;4.25;3.25;;;;;13.31;71.89;101394.16;5074381;28;46490;-80
2021/10/26 02:42:25;;;;;;;;;3.00;2.00;;;;;13.28;71.91;101397.81;5075741;28;46127;-79
2021/10/26 02:44:50;;;;;;;;;3.00;2.75;;;;;13.25;71.42;101390.16;5075870;28;45560;-79
2021/10/26 02:47:16;;;;;;;;;3.00;2.00;;;;;13.10;71.42;101370.13;5075651;28;45855;-80
2021/10/26 02:49:41;;;;;;;;;2.00;2.00;;;;;13.16;71.64;101389.94;5075836;28;45772;-79
2021/10/26 02:52:07;;;;;;;;;2.00;1.50;;;;;13.18;71.81;101391.50;5075767;28;46499;-79
2021/10/26 02:57:54;;;;;;;;;3.00;2.25;;;;;13.02;71.48;101375.91;5074770;28;45653;-80
2021/10/26 03:00:20;;;;;;;;;1.00;1.00;;;;;13.00;71.66;101369.94;5075450;28;45571;-79
2021/10/26 03:02:45;;;;;;;;;3.00;2.00;;;;;13.18;71.67;101409.09;5075464;28;45611;-80
2021/10/26 03:05:10;;;;;;;;;3.00;3.00;;;;;13.17;71.06;101402.16;5075342;28;45663;-79
2021/10/26 03:14:22;;;;;;;;;2.00;2.00;;;;;13.08;71.67;101400.97;5075174;28;46044;-80
2021/10/26 03:16:57;;;;;;;;;3.00;3.00;;;;;12.99;71.71;101398.97;5075052;28;45766;-79
2021/10/26 03:19:23;;;;;;;;;4.00;2.00;;;;;13.16;71.17;101417.09;5056973;28;45752;-81
2021/10/26 03:21:48;;;;;;;;;3.00;2.25;;;;;12.94;71.54;101380.03;5056392;28;47366;-79
2021/10/26 03:24:13;;;;;;;;;4.00;3.00;;;;;12.85;71.45;101364.88;5075040;28;45936;-81
2021/10/26 03:26:39;;;;;;;;;3.50;2.50;;;;;13.17;71.55;101413.50;5075199;28;45601;-81
2021/10/26 03:29:04;;;;;;;;;2.00;1.25;;;;;13.18;71.85;101416.97;5074611;28;45440;-80
2021/10/26 03:31:30;;;;;;;;;2.00;2.00;;;;;12.95;71.71;101381.72;5074578;28;46534;-81
2021/10/26 03:33:55;;;;;;;;;1.75;1.75;;;;;12.98;71.54;101392.03;5074914;28;45616;-80
2021/10/26 03:36:21;;;;;;;;;3.00;3.00;;;;;13.02;71.66;101393.47;5074789;28;45950;-81
2021/10/26 03:38:47;;;;;;;;;2.00;1.50;;;;;13.06;71.16;101397.63;5074968;28;45631;-80
2021/10/26 03:41:13;;;;;;;;;3.00;2.00;;;;;12.97;71.47;101387.69;5074876;28;47280;-80
2021/10/26 03:43:38;;;;;;;;;2.00;2.00;;;;;13.02;71.52;101398.75;5074924;28;45614;-81
2021/10/26 03:46:04;;;;;;;;;3.00;3.00;;;;;13.09;71.34;101413.19;5074704;28;45596;-80
2021/10/26 03:48:30;;;;;;;;;1.00;1.00;;;;;13.13;71.79;101419.09;5075119;28;45787;-80
2021/10/26 03:50:55;;;;;;;;;2.75;2.75;;;;;13.13;71.69;101419.09;5074717;28;45657;-79
2021/10/26 03:53:21;;;;;;;;;2.00;2.00;;;;;13.14;71.64;101419.00;5074558;28;46545;-79
2021/10/26 03:55:46;;;;;;;;;3.25;2.75;;;;;13.07;71.38;101415.06;5074983;28;45584;-77
2021/10/26 03:58:11;;;;;;;;;2.25;2.00;;;;;13.16;71.54;101427.63;5074807;28;45619;-80
2021/10/26 04:00:37;;;;;;;;;1.75;1.00;;;;;13.17;71.59;101434.56;5074794;28;45750;-79
2021/10/26 04:03:04;;;;;;;;;4.00;3.75;;;;;13.19;71.33;101434.47;5075159;28;45560;-80
2021/10/26 04:14:13;;;;;;;;;1.50;0.00;;;;;13.20;71.17;101433.53;5082205;28;45533;-80
2021/10/26 04:16:39;;;;;;;;;2.50;1.50;;;;;13.21;71.69;101429.94;5063995;28;45571;-80
2021/10/26 04:19:04;;;;;;;;;4.00;3.00;;;;;13.19;71.45;101434.47;5082355;28;45451;-80
2021/10/26 04:21:29;;;;;;;;;2.00;2.00;;;;;13.17;71.50;101431.13;5081398;28;46584;-80
2021/10/26 04:23:55;;;;;;;;;3.00;3.00;;;;;13.08;71.23;101424.63;5080121;28;45580;-80
2021/10/26 04:26:20;;;;;;;;;2.00;2.00;;;;;13.16;71.20;101429.41;5056587;28;45708;-79
2021/10/26 04:28:45;;;;;;;;;4.50;2.50;;;;;13.19;71.38;101437.94;5074971;28;45708;-79
2021/10/26 04:31:11;;;;;;;;;2.75;2.50;;;;;13.15;71.25;101433.00;5074252;28;46394;-80
2021/10/26 04:33:36;;;;;;;;;3.25;3.00;;;;;13.19;71.13;101442.34;5074757;28;45652;-80
2021/10/26 04:36:02;;;;;;;;;3.00;3.00;;;;;13.15;70.96;101435.63;5074516;28;45506;-79
2021/10/26 04:38:27;;;;;;;;;3.25;3.25;;;;;13.14;71.35;101439.19;5055928;28;45523;-79
2021/10/26 04:40:57;;;;;;;;;3.00;3.00;;;;;13.07;70.96;101436.09;5073469;28;46290;-79
2021/10/26 04:43:24;;;;;;;;;3.00;3.00;;;;;13.12;71.04;101433.22;5077855;28;45689;-80
2021/10/26 04:45:51;;;;;;;;;2.50;2.25;;;;;13.12;71.24;101441.09;5077320;28;45637;-80
2021/10/26 04:48:17;;;;;;;;;3.25;2.50;;;;;13.11;71.30;101450.75;5077867;28;45593;-80
2021/10/26 04:50:43;;;;;;;;;4.00;3.00;;;;;13.10;70.98;101450.84;5059058;28;47537;-80
2021/10/26 04:53:09;;;;;;;;;3.00;2.00;;;;;13.07;70.92;101454.53;5077456;28;45661;-79
2021/10/26 04:58:56;;;;;;;;;2.00;2.00;;;;;12.95;70.94;101429.06;5074596;28;46363;-80
2021/10/26 05:01:21;;;;;;;;;3.75;2.25;;;;;13.06;70.90;101452.00;5077447;28;46523;-80
2021/10/26 05:03:46;;;;;;;;;5.00;4.00;;;;;13.09;70.81;101460.53;5077341;28;45652;-81
2021/10/26 05:06:12;;;;;;;;;3.50;3.00;;;;;13.09;71.15;101460.53;5077348;28;45620;-80
2021/10/26 05:08:37;;;;;;;;;4.00;4.00;;;;;12.99;70.80;101448.94;5077679;28;45638;-80
2021/10/26 05:11:03;;;;;;;;;3.75;3.50;;;;;12.90;71.12;101436.44;5077330;28;45672;-80
2021/10/26 05:13:30;;;;;;;;;4.00;3.00;;;;;13.04;71.14;101460.00;5077172;28;46086;-79
2021/10/26 05:15:57;;;;;;;;;4.00;4.00;;;;;12.76;71.26;101411.03;5077196;28;45757;-80
2021/10/26 05:18:22;;;;;;;;;4.00;4.00;;;;;13.03;70.79;101463.56;5077460;28;45538;-79
2021/10/26 05:20:49;;;;;;;;;4.75;3.25;;;;;12.81;71.08;101429.13;5076656;28;46545;-79
2021/10/26 05:23:14;;;;;;;;;6.00;5.00;;;;;12.96;70.84;101460.50;5077100;28;45955;-79
2021/10/26 05:29:01;;;;;;;;;5.00;4.75;;;;;12.94;71.06;101472.09;5077046;28;45740;-80
2021/10/26 05:31:28;;;;;;;;;5.00;4.00;;;;;12.92;70.79;101471.34;5076821;28;46466;-79
2021/10/26 05:33:54;;;;;;;;;5.25;5.25;;;;;12.88;70.92;101470.72;5076976;28;45388;-81
2021/10/26 05:36:19;;;;;;;;;6.00;5.25;;;;;12.95;70.72;101479.03;5076802;28;45460;-81
2021/10/26 05:38:45;;;;;;;;;5.75;5.75;;;;;12.81;70.61;101464.16;5076050;28;45986;-80
2021/10/26 05:41:12;;;;;;;;;8.50;6.25;;;;;12.72;70.66;101464.78;5076929;28;45582;-78
2021/10/26 05:43:39;;;;;;;;;6.75;5.75;;;;;12.84;70.68;101476.28;5076976;28;46077;-80
2021/10/26 05:46:04;;;;;;;;;6.50;6.00;;;;;12.87;70.97;101497.94;5058394;28;45625;-81
2021/10/26 05:48:32;;;;;;;;;7.25;5.50;;;;;12.86;70.90;101493.63;5077004;28;45586;-79
2021/10/26 05:50:59;;;;;;;;;4.50;3.50;;;;;12.82;70.51;101497.41;5076379;28;47671;-78
2021/10/26 05:53:24;;;;;;;;;5.50;5.00;;;;;12.78;70.91;101501.19;5075113;28;45962;-79
2021/10/26 05:59:11;;;;;;;;;6.25;5.00;;;;;12.65;70.84;101510.81;5075953;28;45594;-80
2021/10/26 06:01:37;;;;;;;;;5.00;4.25;;;;;12.59;70.77;101503.34;5074405;28;46767;-80
2021/10/26 06:04:02;;;;;;;;;5.25;5.00;;;;;12.48;70.70;101487.41;5076173;28;46410;-79
2021/10/26 06:06:28;;;;;;;;;6.50;5.00;;;;;12.55;70.66;101515.00;5074583;28;45597;-80
2021/10/26 06:08:54;;;;;;;;;5.50;5.00;;;;;12.58;70.95;101523.50;5076758;28;45641;-80
2021/10/26 06:11:23;;;;;;;;;6.50;6.25;;;;;12.60;70.77;101529.53;5076633;28;46805;-81
2021/10/26 06:14:01;;;;;;;;;6.75;5.75;;;;;12.61;70.62;101533.00;5076935;28;46191;-81
2021/10/26 06:16:28;;;;;;;;;6.25;6.25;;;;;12.63;71.04;101538.16;5077817;28;45788;-80
2021/10/26 06:18:53;;;;;;;;;4.75;4.75;;;;;12.60;70.62;101536.56;5077317;28;45826;-78
2021/10/26 06:21:19;;;;;;;;;6.25;5.25;;;;;12.55;70.86;101528.13;5075933;28;47896;-77
2021/10/26 06:23:46;;;;;;;;;6.75;5.75;;;;;12.55;70.86;101538.66;5059963;28;46340;-80
2021/10/26 06:29:33;;;;;;;;;5.50;5.50;;;;;12.52;70.97;101536.25;5076440;28;45658;-78
2021/10/26 06:31:58;;;;;;;;;8.00;6.50;;;;;12.53;70.95;101538.75;5076379;28;46634;-79
2021/10/26 06:34:24;;;;;;;;;4.00;4.00;;;;;12.43;70.70;101526.28;5076227;28;46687;-80
2021/10/26 06:36:49;;;;;;;;;3.75;3.75;;;;;12.47;70.93;101539.13;5076610;28;45612;-78
2021/10/26 06:39:20;;;;;;;;;5.00;5.00;;;;;12.41;70.43;101531.66;5058372;28;45555;-78
2021/10/26 06:41:45;;;;;;;;;5.00;5.00;;;;;12.44;70.49;101541.13;5076257;28;47403;-79
2021/10/26 06:44:11;;;;;;;;;4.25;4.00;;;;;12.40;70.59;101534.38;5074283;28;46323;-77
2021/10/26 06:46:39;;;;;;;;;5.75;5.00;;;;;12.35;70.64;101539.09;5076821;28;45522;-78
2021/10/26 06:49:04;;;;;;;;;6.25;5.50;;;;;12.34;70.67;101547.91;5078598;28;45681;-78
2021/10/26 06:51:31;;;;;;;;;8.00;7.75;;;;;12.32;70.62;101552.41;5079885;28;45501;-80
2021/10/26 06:53:57;;;;;;;;;6.50;6.50;;;;;12.26;70.61;101550.16;5078722;28;47195;-78
2021/10/26 06:59:43;;;;;;;;;6.00;4.50;;;;;12.25;70.72;101569.53;5079156;27;45643;-76
2021/10/26 07:02:09;;;;;;;;;12.75;8.25;;;;;12.22;70.53;101574.94;5081407;28;45601;-78
2021/10/26 07:04:36;;;;;;;;;7.75;6.00;;;;;12.13;70.78;101569.34;5079534;28;45656;-78
2021/10/26 07:07:03;;;;;;;;;8.75;7.00;;;;;12.16;70.87;101578.78;5076678;28;45718;-77
2021/10/26 07:09:28;;;;;;;;;5.25;5.00;;;;;12.11;70.93;101579.09;5075876;28;45597;-78
2021/10/26 07:11:53;;;;;;;;;6.25;5.50;;;;;12.13;70.96;101579.00;5075289;28;47134;-77
2021/10/26 07:14:19;;;;;;;;;8.75;6.25;;;;;12.13;71.02;101579.84;5074986;28;46939;-77
2021/10/26 07:16:45;;;;;;;;;10.00;8.00;;;;;12.15;71.07;101595.50;5075572;28;45807;-75
2021/10/26 07:19:10;;;;;;;;;8.75;7.75;;;;;12.13;71.22;101598.25;5075923;28;45515;-77
2021/10/26 07:21:36;;;;;;;;;8.50;8.25;;;;;12.04;71.47;101582.19;5074201;28;47730;-76
2021/10/26 07:24:05;;;;;;;;;9.50;8.00;;;;;12.10;71.14;101598.41;5075466;28;45474;-77
2021/10/26 07:29:52;;;;;;;;;9.50;8.75;;;;;12.17;71.55;101612.88;5075383;28;45514;-77
2021/10/26 07:32:19;;;;;;;;;10.00;9.00;;;;;12.18;71.48;101616.34;5074196;28;45683;-79
2021/10/26 07:34:45;;;;;;;;;12.00;9.00;;;;;12.18;71.87;101619.81;5074808;28;46808;-79
2021/10/26 07:37:11;;;;;;;;;8.25;8.00;;;;;12.22;71.93;101627.50;5074795;28;45623;-76
2021/10/26 07:39:47;;;;;;;;;11.25;11.25;;;;;12.20;71.68;101619.69;5074984;28;45803;-76
2021/10/26 07:42:14;;;;;;;;;11.25;10.25;;;;;12.25;72.05;101627.31;5074644;28;46650;-78
2021/10/26 07:44:40;;;;;;;;;11.75;11.25;;;;;12.26;72.10;101644.75;5074981;28;46075;-77
2021/10/26 07:47:05;;;;;;;;;12.75;11.50;;;;;12.25;72.38;101643.09;5074745;28;45583;-77
2021/10/26 07:49:32;;;;;;;;;13.50;10.75;;;;;12.27;72.61;101647.28;5074846;28;45906;-76
2021/10/26 07:51:58;;;;;;;;;8.75;7.25;;;;;12.30;72.54;101644.50;5074904;28;45655;-75
2021/10/26 07:54:24;;;;;;;;;13.25;10.00;;;;;12.29;72.72;101637.53;5073603;28;45689;-80
2021/10/26 08:00:11;;;;;;;;;10.00;9.50;;;;;12.39;72.77;101646.53;5073861;28;45647;-78
2021/10/26 08:02:36;;;;;;;;;10.75;10.50;;;;;12.41;73.12;101656.97;5074852;28;46445;-78
2021/10/26 08:05:02;;;;;;;;;13.50;11.25;;;;;12.29;72.97;101632.28;5074499;28;47082;-77
2021/10/26 08:07:28;;;;;;;;;17.00;12.75;;;;;12.41;73.11;101647.31;5074523;28;45534;-79
2021/10/26 08:09:56;;;;;;;;;14.00;11.50;;;;;12.52;72.84;101657.97;5074811;28;45842;-78
2021/10/26 08:12:22;;;;;;;;;10.00;10.00;;;;;12.58;73.29;101660.22;5074485;28;47520;-78
2021/10/26 08:14:49;;;;;;;;;10.00;9.50;;;;;12.60;72.83;101649.63;5074460;28;47540;-79
2021/10/26 08:17:15;;;;;;;;;13.00;12.00;;;;;12.60;73.00;101644.34;5074151;28;45712;-79
2021/10/26 08:19:43;;;;;;;;;13.25;12.00;;;;;12.72;73.17;101661.16;5074900;28;45644;-78
2021/10/26 08:22:13;;;;;;;;;10.50;10.00;;;;;12.76;73.16;101660.00;5074209;28;46585;-80
2021/10/26 08:31:23;;;;;;;;;11.00;10.75;;;;;12.91;73.13;101659.03;5074302;28;45533;-77
2021/10/26 08:36:29;;;;;;;;;14.00;13.25;;;;;12.99;72.89;101651.50;5058928;28;46021;-78
2021/10/26 08:38:54;;;;;;;;;12.25;12.00;;;;;12.99;72.87;101649.72;5075267;28;45575;-77
2021/10/26 08:41:23;;;;;;;;;12.50;11.00;;;;;13.08;73.03;101661.41;5075498;28;45743;-78
2021/10/26 08:43:50;;;;;;;;;14.00;12.75;;;;;13.06;73.13;101647.53;5074264;28;46432;-78
2021/10/26 08:46:17;;;;;;;;;12.75;11.00;;;;;13.13;72.84;101659.38;5074466;28;46211;-77
2021/10/26 08:48:46;;;;;;;;;11.00;8.50;;;;;13.20;72.68;101650.13;5056067;28;45754;-77
2021/10/26 08:51:11;;;;;;;;;17.00;11.00;;;;;13.25;72.61;101655.09;5074389;28;45679;-78
2021/10/26 08:53:37;;;;;;;;;14.00;11.75;;;;;13.26;72.67;101647.13;5074289;28;46529;-76
2021/10/26 08:56:04;;;;;;;;;10.50;9.75;;;;;13.35;72.67;101649.13;5074060;28;45617;-78
2021/10/26 08:58:31;;;;;;;;;12.00;11.50;;;;;13.39;72.75;101660.28;5073907;28;45525;-77
2021/10/26 09:00:59;;;;;;;;;10.75;8.00;;;;;13.43;72.72;101665.28;5073709;28;45732;-76
2021/10/26 09:03:34;;;;;;;;;9.25;9.25;;;;;13.49;72.59;101656.13;5073616;28;47280;-76
2021/10/26 09:06:00;;;;;;;;;8.25;7.00;;;;;13.53;72.29;101644.44;5073963;28;46009;-78
2021/10/26 09:08:27;;;;;;;;;14.00;11.50;;;;;13.55;72.38;101653.06;5073735;28;45567;-77
2021/10/26 09:10:54;;;;;;;;;8.50;8.00;;;;;13.57;72.44;101658.22;5073811;28;45806;-78
2021/10/26 09:19:27;;;;;;;;;7.25;7.00;;;;;13.67;72.17;101665.41;4992362;28;45682;-73
2021/10/26 09:22:04;;;;;;;;;11.50;8.25;;;;;13.60;72.18;101653.63;4975825;28;45618;-77
2021/10/26 09:24:30;;;;;;;;;14.50;11.25;;;;;13.67;72.01;101654.03;4991695;28;47560;-75
2021/10/26 09:27:06;;;;;;;;;12.25;8.00;;;;;13.73;72.27;101662.38;4991879;28;47215;-78
2021/10/26 09:29:48;;;;;;;;;10.50;7.50;;;;;13.70;72.24;101643.31;4995837;28;45655;-76
2021/10/26 09:32:23;;;;;;;;;7.00;6.00;;;;;13.73;71.89;101646.56;4996897;28;45545;-77
2021/10/26 09:34:53;;;;;;;;;7.75;6.75;;;;;13.77;71.87;101655.94;4996198;28;45657;-78
2021/10/26 09:37:20;;;;;;;;;9.00;7.00;;;;;13.78;71.84;101648.88;4998720;28;46001;-79
2021/10/26 09:39:59;;;;;;;;;7.00;7.00;;;;;13.80;71.55;101649.63;5000235;28;45657;-79
2021/10/26 09:42:37;;;;;;;;;11.00;6.00;;;;;13.81;71.96;101662.72;4999211;28;45448;-78
2021/10/26 09:45:03;;;;;;;;;7.00;5.00;;;;;13.83;71.50;101650.25;4999640;28;46437;-77
2021/10/26 09:47:32;;;;;;;;;8.00;6.00;;;;;13.80;71.19;101645.22;4998517;28;45838;-78
2021/10/26 09:50:01;;;;;;;;;7.00;6.00;;;;;13.90;71.28;101647.22;4997985;28;45805;-76
2021/10/26 09:53:01;;;;;;;;;8.00;6.50;;;;;13.97;71.58;101643.22;4996104;28;46008;-78
2021/10/26 09:58:48;;;;;;;;;8.75;7.00;;;;;14.05;71.50;101635.63;5080139;28;45672;-76
2021/10/26 10:01:14;;;;;;;;;8.75;7.25;;;;;14.17;71.55;101646.16;5080357;28;45827;-78
2021/10/26 10:03:41;;;;;;;;;9.00;7.00;;;;;14.25;71.00;101659.63;5088061;28;45763;-77
2021/10/26 10:06:09;;;;;;;;;5.00;5.00;;;;;14.24;70.96;101649.22;5086950;28;46312;-77
2021/10/26 10:08:37;;;;;;;;;6.00;6.00;;;;;14.33;71.27;101651.19;5085896;28;46132;-75
2021/10/26 10:14:24;;;;;;;;;6.00;5.00;;;;;14.46;71.09;101662.63;5083412;28;45472;-76
2021/10/26 10:16:53;;;;;;;;;6.00;6.00;;;;;14.52;70.73;101669.25;5081781;28;46930;-77
2021/10/26 10:19:20;;;;;;;;;5.25;5.25;;;;;14.57;71.08;101681.16;5082102;28;45676;-79
2021/10/26 10:21:50;;;;;;;;;4.25;4.00;;;;;14.62;70.44;101667.66;5083141;28;45702;-76
2021/10/26 10:24:18;;;;;;;;;5.50;4.00;;;;;14.61;70.65;101664.16;5042082;28;45896;-76
2021/10/26 10:30:09;;;;;;;;;5.25;5.00;;;;;14.77;70.42;101669.19;5076385;28;45830;-77
2021/10/26 10:32:34;;;;;;;;;7.25;5.25;;;;;14.80;70.26;101674.22;5076376;28;45668;-76
2021/10/26 10:35:02;;;;;;;;;6.50;6.00;;;;;14.84;70.44;101675.72;5076041;28;45871;-79
2021/10/26 10:37:29;;;;;;;;;6.00;5.00;;;;;14.84;70.10;101670.44;5076363;28;45736;-77
2021/10/26 10:40:01;;;;;;;;;3.50;3.50;;;;;14.88;70.44;101665.78;5057222;28;47834;-78
2021/10/26 10:45:48;;;;;;;;;4.00;3.75;;;;;15.07;70.14;101688.09;5076020;28;45673;-78
2021/10/26 10:48:27;;;;;;;;;4.75;4.25;;;;;15.14;70.09;101693.75;5075247;28;45720;-78
2021/10/26 10:51:11;;;;;;;;;4.00;3.00;;;;;15.18;69.53;101689.94;5075603;28;45574;-78
2021/10/26 10:53:37;;;;;;;;;6.25;5.00;;;;;15.20;69.44;101689.84;5075555;28;45472;-78
2021/10/26 10:56:13;;;;;;;;;6.25;6.00;;;;;15.23;69.76;101682.53;5075703;28;45554;-79
2021/10/26 10:58:41;;;;;;;;;5.25;5.00;;;;;15.26;69.86;101684.09;5073540;28;46721;-76
2021/10/26 11:01:32;;;;;;;;;4.25;3.50;;;;;15.27;69.27;101683.16;5056893;28;47612;-76
2021/10/26 11:04:00;;;;;;;;;4.50;4.00;;;;;15.32;69.39;101684.50;5075710;28;45569;-77
2021/10/26 11:06:41;;;;;;;;;5.00;4.00;;;;;15.35;69.23;101672.84;5057686;28;45733;-79
2021/10/26 11:09:28;;;;;;;;;3.50;3.00;;;;;15.40;69.17;101673.34;5075576;28;46315;-77
2021/10/26 11:12:21;;;;;;;;;3.50;2.00;;;;;15.47;69.06;101679.88;5075449;28;45857;-79
2021/10/26 11:14:55;;;;;;;;;5.50;4.00;;;;;15.50;68.96;101679.63;5075505;28;45491;-76
2021/10/26 11:17:36;;;;;;;;;3.75;2.75;;;;;15.43;68.93;101662.59;5075311;28;45575;-77
2021/10/26 11:20:07;;;;;;;;;3.00;3.00;;;;;15.54;68.76;101673.22;5074901;28;46358;-75
2021/10/26 11:22:44;;;;;;;;;1.00;1.00;;;;;15.56;68.83;101673.09;5075162;28;47240;-79
2021/10/26 11:25:28;;;;;;;;;3.00;3.00;;;;;15.56;68.62;101658.09;5075076;28;45538;-78
2021/10/26 11:28:11;;;;;;;;;4.25;3.25;;;;;15.55;68.95;101643.19;5075532;28;45851;-78
2021/10/26 11:30:36;;;;;;;;;3.75;2.50;;;;;15.62;68.63;101649.69;5075004;28;46483;-76
2021/10/26 11:33:14;;;;;;;;;3.75;3.00;;;;;15.66;68.51;101637.94;5074904;28;46959;-76
2021/10/26 11:35:49;;;;;;;;;2.25;2.00;;;;;15.71;68.53;101645.53;5074693;28;45530;-78
2021/10/26 11:38:18;;;;;;;;;2.50;1.00;;;;;15.73;68.30;101652.38;5074429;28;45486;-79
2021/10/26 11:44:16;;;;;;;;;4.00;3.00;;;;;15.79;68.36;101640.50;5074629;28;45840;-75
2021/10/26 11:46:45;;;;;;;;;2.25;2.00;;;;;15.88;68.12;101645.91;5075028;28;45701;-74
2021/10/26 11:49:21;;;;;;;;;2.25;2.25;;;;;15.91;67.89;101642.22;5057029;28;45591;-77
2021/10/26 11:51:58;;;;;;;;;3.00;3.00;;;;;15.96;67.88;101634.75;5073267;28;46589;-77
2021/10/26 11:54:29;;;;;;;;;3.75;3.00;;;;;16.01;67.76;101631.75;5074388;28;46272;-75
2021/10/26 12:00:16;;;;;;;;;3.25;2.75;;;;;16.09;67.25;101627.53;5074691;28;45444;-78
2021/10/26 12:02:41;;;;;;;;;4.00;3.00;;;;;16.15;67.52;101636.81;5074711;28;46260;-78
2021/10/26 12:05:18;;;;;;;;;3.75;3.75;;;;;16.19;67.73;101628.53;5074816;28;45755;-77
2021/10/26 12:07:49;;;;;;;;;3.00;2.25;;;;;16.24;67.74;101639.59;5075400;28;45665;-78
2021/10/26 12:10:15;;;;;;;;;3.50;3.00;;;;;16.29;67.32;101632.16;5074718;28;45509;-78
2021/10/26 12:16:14;;;;;;;;;3.50;3.50;;;;;16.33;67.15;101635.38;5077719;28;45745;-76
2021/10/26 12:18:39;;;;;;;;;2.50;2.00;;;;;16.32;67.20;101631.88;5080188;28;45626;-77
2021/10/26 12:21:04;;;;;;;;;3.00;3.00;;;;;16.38;67.13;101630.56;5080653;28;45711;-77
2021/10/26 12:23:30;;;;;;;;;2.00;2.00;;;;;16.42;66.86;101633.78;5079880;28;46165;-78
2021/10/26 12:25:58;;;;;;;;;5.25;4.00;;;;;16.43;67.03;101628.41;5081487;28;45978;-75
2021/10/26 12:28:24;;;;;;;;;4.00;3.00;;;;;16.49;66.69;101622.63;5080422;28;45658;-78
2021/10/26 12:30:50;;;;;;;;;3.25;2.75;;;;;16.56;66.89;101623.81;5076161;28;45559;-78
2021/10/26 12:33:24;;;;;;;;;5.75;5.00;;;;;16.58;66.87;101624.53;5075315;28;46303;-76
2021/10/26 12:35:57;;;;;;;;;3.50;3.50;;;;;16.67;66.58;101630.94;5074856;28;45834;-77
2021/10/26 12:38:29;;;;;;;;;5.00;4.25;;;;;16.70;66.28;101625.38;5074715;28;45655;-77
2021/10/26 12:48:02;;;;;;;;;4.50;4.00;;;;;16.82;66.16;101611.16;5011836;28;45692;-76
2021/10/26 12:53:19;;;;;;;;;6.00;5.00;;;;;16.90;66.13;101613.16;5011856;28;45755;-75
2021/10/26 12:55:50;;;;;;;;;4.75;4.00;;;;;16.93;65.86;101610.28;5011718;28;45656;-78
2021/10/26 12:58:39;;;;;;;;;4.00;4.00;;;;;16.96;66.19;101615.31;5011498;28;46968;-78
2021/10/26 13:01:30;;;;;;;;;3.50;2.00;;;;;16.99;66.08;101613.28;4993575;28;45777;-77
2021/10/26 13:04:22;;;;;;;;;3.00;3.00;;;;;17.02;66.15;101626.25;4985076;28;45655;-77
2021/10/26 13:06:52;;;;;;;;;3.00;2.00;;;;;17.04;65.99;101628.78;4995458;28;45834;-78
2021/10/26 13:09:44;;;;;;;;;2.00;2.00;;;;;17.05;65.76;101627.81;4995362;28;46406;-78
2021/10/26 13:15:34;;;;;;;;;2.25;1.75;;;;;17.07;65.11;101624.06;4995158;28;45862;-75
2021/10/26 13:18:03;;;;;;;;;3.00;2.50;;;;;17.07;65.62;101618.78;4994828;28;45655;-77